Time;durP1;ratioP1;P1;durP2;ratioP2;P2;SDS_P1;SDS_P2;PMS_P1;PMS_P2;Temp;Humidity;BMP_temperature;BMP_pressure;BME280_temperature;BME280_humidity;BME280_pressure;Samples;Min_cycle;Max_cycle;Signal;HPM_P1;HPM_P2
2023/04/04 00:00:31;;;;;;;6.80;3.50;;;4.20;1.00;;;;;;5096097;28;20619;-74
2023/04/04 00:02:57;;;;;;;6.77;2.87;;;4.20;1.00;;;;;;5096251;28;20172;-74
2023/04/04 00:05:22;;;;;;;4.13;2.73;;;4.20;1.00;;;;;;5095948;28;20180;-74
2023/04/04 00:07:48;;;;;;;4.77;2.63;;;4.10;1.00;;;;;;5096268;28;20171;-74
2023/04/04 00:10:14;;;;;;;5.30;3.17;;;4.10;1.00;;;;;;5095852;28;20180;-74
2023/04/04 00:12:41;;;;;;;5.57;2.70;;;4.10;1.00;;;;;;5095748;28;20199;-75
2023/04/04 00:15:07;;;;;;;4.70;2.77;;;4.00;1.00;;;;;;5095999;28;20171;-74
2023/04/04 00:17:32;;;;;;;3.83;3.10;;;4.00;1.00;;;;;;5096032;28;20186;-74
2023/04/04 00:19:58;;;;;;;3.00;2.70;;;4.00;1.00;;;;;;5095672;28;20676;-74
2023/04/04 00:22:24;;;;;;;4.53;3.00;;;3.90;1.00;;;;;;5095958;28;20160;-74
2023/04/04 00:24:50;;;;;;;4.57;3.20;;;3.90;1.00;;;;;;5095651;28;20176;-73
2023/04/04 00:27:16;;;;;;;4.03;3.17;;;3.90;1.00;;;;;;5095456;28;20197;-73
2023/04/04 00:29:41;;;;;;;6.00;3.20;;;3.90;1.00;;;;;;5095071;28;20168;-74
2023/04/04 00:32:07;;;;;;;8.30;3.00;;;3.80;1.00;;;;;;5095549;28;20183;-74
2023/04/04 00:34:35;;;;;;;3.33;2.50;;;3.80;1.00;;;;;;5095517;28;20222;-74
2023/04/04 00:37:00;;;;;;;5.67;3.20;;;3.80;1.00;;;;;;5094906;28;20710;-74
2023/04/04 00:39:27;;;;;;;4.90;2.90;;;3.80;1.00;;;;;;5095616;28;20168;-73
2023/04/04 00:41:52;;;;;;;5.47;3.30;;;3.70;1.00;;;;;;5095016;28;20168;-74
2023/04/04 00:44:18;;;;;;;6.43;3.87;;;3.60;1.00;;;;;;5095234;28;20212;-75
2023/04/04 00:46:44;;;;;;;7.87;4.70;;;3.60;1.00;;;;;;5095292;28;20280;-74
2023/04/04 00:49:10;;;;;;;4.23;3.83;;;3.60;1.00;;;;;;5095020;28;20188;-74
2023/04/04 00:51:36;;;;;;;4.20;3.70;;;3.60;1.00;;;;;;5095108;28;20183;-74
2023/04/04 00:54:02;;;;;;;6.10;3.00;;;3.70;1.00;;;;;;5095236;28;20262;-74
2023/04/04 00:56:29;;;;;;;4.63;3.00;;;3.70;1.00;;;;;;5094641;28;20200;-75
2023/04/04 00:58:56;;;;;;;3.97;3.00;;;3.70;1.00;;;;;;5094915;28;20624;-73
2023/04/04 01:01:24;;;;;;;3.73;2.80;;;3.60;1.00;;;;;;5094925;28;20164;-73
2023/04/04 01:03:50;;;;;;;5.10;2.70;;;3.70;1.00;;;;;;5095026;28;20183;-73
2023/04/04 01:06:16;;;;;;;3.90;2.80;;;3.60;1.00;;;;;;5094960;28;20182;-73
2023/04/04 01:08:42;;;;;;;3.57;2.80;;;3.60;1.00;;;;;;5094937;28;20167;-74
2023/04/04 01:11:09;;;;;;;6.10;2.70;;;3.50;1.00;;;;;;5094384;28;20172;-73
2023/04/04 01:13:35;;;;;;;3.53;2.77;;;3.60;1.00;;;;;;5094653;28;20172;-74
2023/04/04 01:16:01;;;;;;;5.47;2.80;;;3.50;1.00;;;;;;5093302;28;20211;-74
2023/04/04 01:18:28;;;;;;;3.93;2.80;;;3.50;1.00;;;;;;5094622;28;20616;-73
2023/04/04 01:21:00;;;;;;;6.97;3.20;;;3.60;1.00;;;;;;5094564;28;20174;-75
2023/04/04 01:23:35;;;;;;;3.57;3.10;;;3.50;1.00;;;;;;5094668;28;20199;-74
2023/04/04 01:26:02;;;;;;;3.93;3.03;;;3.40;1.00;;;;;;5094052;28;20179;-73
2023/04/04 01:28:28;;;;;;;3.67;2.60;;;3.40;1.00;;;;;;5094513;28;20187;-73
2023/04/04 01:30:54;;;;;;;6.90;3.03;;;3.30;1.00;;;;;;5094432;28;20168;-75
2023/04/04 01:33:33;;;;;;;3.53;2.90;;;3.30;1.00;;;;;;5094354;28;20187;-75
2023/04/04 01:36:20;;;;;;;6.27;3.07;;;3.30;1.00;;;;;;5093881;28;20266;-74
2023/04/04 01:38:54;;;;;;;7.17;2.63;;;3.20;1.00;;;;;;5094298;28;20172;-74
2023/04/04 01:41:21;;;;;;;3.93;2.77;;;3.20;1.00;;;;;;5093370;28;20626;-75
2023/04/04 01:43:46;;;;;;;3.13;2.37;;;3.20;1.00;;;;;;5094105;28;20178;-74
2023/04/04 01:46:13;;;;;;;4.90;2.90;;;3.20;1.00;;;;;;5094264;28;20172;-74
2023/04/04 01:48:38;;;;;;;8.40;3.20;;;3.20;1.00;;;;;;5094343;28;20183;-74
2023/04/04 01:51:05;;;;;;;4.17;2.93;;;3.30;1.00;;;;;;5093868;28;20274;-75
2023/04/04 01:53:30;;;;;;;5.87;2.90;;;3.20;1.00;;;;;;5093936;28;20191;-74
2023/04/04 01:55:56;;;;;;;5.77;3.13;;;3.20;1.00;;;;;;5094024;28;20676;-74
2023/04/04 01:58:22;;;;;;;3.70;2.50;;;3.20;1.00;;;;;;5093988;28;20172;-73
2023/04/04 02:00:47;;;;;;;5.13;3.00;;;3.10;1.00;;;;;;5093802;28;20238;-74
2023/04/04 02:03:13;;;;;;;5.27;3.47;;;3.10;1.00;;;;;;5093865;28;20233;-75
2023/04/04 02:05:39;;;;;;;6.50;2.93;;;3.00;1.00;;;;;;5093716;28;20667;-74
2023/04/04 02:08:05;;;;;;;4.43;2.77;;;3.00;1.00;;;;;;5092450;28;20615;-74
2023/04/04 02:10:31;;;;;;;3.53;2.87;;;3.00;1.00;;;;;;5093685;28;20172;-74
2023/04/04 02:12:56;;;;;;;4.23;3.00;;;2.90;1.00;;;;;;5093734;28;20164;-75
2023/04/04 02:15:23;;;;;;;3.10;2.73;;;2.90;1.00;;;;;;5093536;28;20232;-74
2023/04/04 02:17:48;;;;;;;4.70;2.97;;;2.90;1.00;;;;;;5093685;28;20601;-74
2023/04/04 02:20:15;;;;;;;7.20;3.20;;;2.80;1.00;;;;;;5093434;28;20175;-73
2023/04/04 02:22:41;;;;;;;4.37;3.30;;;2.80;1.00;;;;;;5092071;28;20266;-75
2023/04/04 02:25:07;;;;;;;6.23;3.13;;;2.80;1.00;;;;;;5093686;28;20271;-74
2023/04/04 02:27:32;;;;;;;4.87;3.10;;;2.80;1.00;;;;;;5093484;28;20194;-74
2023/04/04 02:29:58;;;;;;;4.77;3.10;;;2.80;1.00;;;;;;5093440;28;20175;-75
2023/04/04 02:32:23;;;;;;;4.33;3.37;;;2.80;1.00;;;;;;5093465;28;20511;-74
2023/04/04 02:34:49;;;;;;;4.97;3.67;;;2.80;1.00;;;;;;5093321;28;20168;-74
2023/04/04 02:37:16;;;;;;;3.80;3.00;;;2.90;1.00;;;;;;5092739;28;20397;-74
2023/04/04 02:39:42;;;;;;;3.90;3.47;;;2.80;1.00;;;;;;5093035;28;20546;-76
2023/04/04 02:42:07;;;;;;;5.87;3.30;;;2.80;1.00;;;;;;5093408;28;20183;-75
2023/04/04 02:44:33;;;;;;;5.00;2.90;;;2.80;1.00;;;;;;5093515;28;20203;-75
2023/04/04 02:46:58;;;;;;;5.23;3.40;;;2.80;1.00;;;;;;5093226;28;20172;-74
2023/04/04 02:49:24;;;;;;;6.83;4.03;;;2.70;1.00;;;;;;5093053;28;20183;-75
2023/04/04 02:51:50;;;;;;;5.63;3.20;;;2.70;1.00;;;;;;5093509;28;20680;-74
2023/04/04 02:54:15;;;;;;;6.33;3.93;;;2.70;1.00;;;;;;5097554;28;20168;-74
2023/04/04 02:56:41;;;;;;;7.03;3.90;;;2.70;1.00;;;;;;5097238;28;20689;-75
2023/04/04 02:59:07;;;;;;;6.23;3.60;;;2.70;1.00;;;;;;5097465;28;20172;-75
2023/04/04 03:01:32;;;;;;;8.27;2.87;;;2.70;1.00;;;;;;5097409;28;20199;-75
2023/04/04 03:03:58;;;;;;;6.50;3.13;;;2.60;1.00;;;;;;5097042;28;20225;-74
2023/04/04 03:06:23;;;;;;;4.03;2.73;;;2.60;1.00;;;;;;5096811;28;20242;-74
2023/04/04 03:08:49;;;;;;;8.07;3.10;;;2.60;1.00;;;;;;5097372;28;20167;-74
2023/04/04 03:11:21;;;;;;;3.77;2.80;;;2.50;1.00;;;;;;5097099;28;20616;-75
2023/04/04 03:13:49;;;;;;;7.77;3.03;;;2.40;1.00;;;;;;5097432;28;20566;-75
2023/04/04 03:16:16;;;;;;;5.03;2.90;;;2.40;1.00;;;;;;5096836;28;20207;-75
2023/04/04 03:18:43;;;;;;;6.87;2.87;;;2.40;1.00;;;;;;5096938;28;20226;-75
2023/04/04 03:21:09;;;;;;;3.90;3.17;;;2.40;1.00;;;;;;5096521;28;20180;-75
2023/04/04 03:23:34;;;;;;;3.60;3.30;;;2.30;1.00;;;;;;5097127;28;20167;-73
2023/04/04 03:26:00;;;;;;;3.27;2.97;;;2.30;1.00;;;;;;5096788;28;20168;-75
2023/04/04 03:28:26;;;;;;;5.40;3.23;;;2.30;1.00;;;;;;5096533;28;20168;-75
2023/04/04 03:30:52;;;;;;;7.90;3.67;;;2.30;1.00;;;;;;5096475;28;20186;-75
2023/04/04 03:33:18;;;;;;;6.87;3.70;;;2.20;1.00;;;;;;5096392;28;20160;-75
2023/04/04 03:35:44;;;;;;;4.57;3.40;;;2.10;1.00;;;;;;5096045;28;20241;-76
2023/04/04 03:38:10;;;;;;;6.77;3.90;;;2.10;1.00;;;;;;5096489;28;20168;-74
2023/04/04 03:40:36;;;;;;;8.87;3.90;;;2.10;1.00;;;;;;5096301;28;20168;-74
2023/04/04 03:43:01;;;;;;;12.23;3.60;;;2.10;1.00;;;;;;5096443;28;20160;-75
2023/04/04 03:45:31;;;;;;;6.30;3.23;;;2.10;1.00;;;;;;5096714;28;20168;-76
2023/04/04 03:47:57;;;;;;;6.47;3.93;;;2.10;1.00;;;;;;5096540;28;20186;-74
2023/04/04 03:50:22;;;;;;;6.07;3.70;;;2.00;1.00;;;;;;5095304;28;20730;-75
2023/04/04 03:52:49;;;;;;;7.80;4.07;;;2.00;1.90;;;;;;5096220;28;20163;-75
2023/04/04 03:55:15;;;;;;;7.53;3.87;;;1.90;3.20;;;;;;5096046;28;20235;-74
2023/04/04 03:57:40;;;;;;;4.60;3.70;;;1.90;2.10;;;;;;5096170;28;20554;-75
2023/04/04 04:00:06;;;;;;;9.97;4.17;;;1.90;2.10;;;;;;5095611;28;20187;-75
2023/04/04 04:02:32;;;;;;;5.20;3.77;;;2.00;2.20;;;;;;5096095;28;20191;-76
2023/04/04 04:04:58;;;;;;;6.77;3.90;;;1.90;2.80;;;;;;5094832;28;20620;-74
2023/04/04 04:07:23;;;;;;;6.20;3.83;;;1.90;4.60;;;;;;5095805;28;20168;-74
2023/04/04 04:09:49;;;;;;;9.00;3.93;;;1.80;5.20;;;;;;5095550;28;20176;-75
2023/04/04 04:12:14;;;;;;;8.30;3.97;;;1.80;6.30;;;;;;5095493;28;20175;-75
2023/04/04 04:14:40;;;;;;;7.10;4.03;;;1.80;6.10;;;;;;5095328;28;20171;-74
2023/04/04 04:17:06;;;;;;;6.80;4.10;;;1.80;6.40;;;;;;5095899;28;20253;-74
2023/04/04 04:19:31;;;;;;;8.00;4.20;;;1.80;9.40;;;;;;5094874;28;20165;-75
2023/04/04 04:21:57;;;;;;;5.47;4.10;;;1.80;9.80;;;;;;5095251;28;20179;-75
2023/04/04 04:24:23;;;;;;;6.43;3.80;;;1.80;9.30;;;;;;5095532;28;20202;-74
2023/04/04 04:26:48;;;;;;;8.47;4.03;;;1.80;9.90;;;;;;5095424;28;20171;-74
2023/04/04 04:29:15;;;;;;;6.70;3.90;;;1.80;10.40;;;;;;5094671;28;20180;-76
2023/04/04 04:31:40;;;;;;;7.00;3.90;;;1.70;11.60;;;;;;5095296;28;20180;-75
2023/04/04 04:34:07;;;;;;;9.10;4.27;;;1.70;12.10;;;;;;5095060;28;20191;-75
2023/04/04 04:36:34;;;;;;;5.20;3.87;;;1.70;11.90;;;;;;5094624;28;20235;-75
2023/04/04 04:39:00;;;;;;;6.73;3.93;;;1.70;10.60;;;;;;5095036;28;20182;-75
2023/04/04 04:41:28;;;;;;;6.60;3.90;;;1.70;9.30;;;;;;5094818;28;20167;-74
2023/04/04 04:43:54;;;;;;;6.23;3.20;;;1.80;2.60;;;;;;5094931;28;20168;-75
2023/04/04 04:46:20;;;;;;;4.97;3.60;;;1.80;1.00;;;;;;5094987;28;20180;-75
2023/04/04 04:48:45;;;;;;;8.73;3.80;;;1.90;1.00;;;;;;5094503;28;20249;-74
2023/04/04 04:51:12;;;;;;;9.57;3.93;;;1.90;1.00;;;;;;5094464;28;20668;-73
2023/04/04 04:53:38;;;;;;;7.57;3.97;;;1.80;1.00;;;;;;5094848;28;20161;-75
2023/04/04 04:56:04;;;;;;;5.90;3.63;;;1.80;1.00;;;;;;5094538;28;20199;-76
2023/04/04 04:58:29;;;;;;;6.17;3.40;;;1.80;1.00;;;;;;5094110;28;20229;-75
2023/04/04 05:00:58;;;;;;;6.33;3.60;;;1.80;1.00;;;;;;5094591;28;20164;-75
2023/04/04 05:03:23;;;;;;;3.47;3.10;;;1.70;1.00;;;;;;5094540;28;20172;-75
2023/04/04 05:05:50;;;;;;;5.97;3.77;;;1.70;1.00;;;;;;5094342;28;20178;-75
2023/04/04 05:08:15;;;;;;;6.70;4.33;;;1.70;1.00;;;;;;5093101;28;20176;-75
2023/04/04 05:10:41;;;;;;;9.80;4.57;;;1.70;1.00;;;;;;5093882;28;20270;-75
2023/04/04 05:13:08;;;;;;;10.30;4.03;;;1.60;1.40;;;;;;5093859;28;20178;-75
2023/04/04 05:15:34;;;;;;;6.13;3.90;;;1.60;4.60;;;;;;5092729;28;20183;-75
2023/04/04 05:18:00;;;;;;;5.37;4.23;;;1.60;7.80;;;;;;5093746;28;20180;-75
2023/04/04 05:20:26;;;;;;;6.70;4.37;;;1.60;10.80;;;;;;5094260;28;20160;-77
2023/04/04 05:22:51;;;;;;;10.03;4.47;;;1.60;10.50;;;;;;5093622;28;20202;-75
2023/04/04 05:25:17;;;;;;;9.00;4.67;;;1.60;11.70;;;;;;5093593;28;20615;-74
2023/04/04 05:27:47;;;;;;;8.40;4.73;;;1.60;12.00;;;;;;5093767;28;20599;-75
2023/04/04 05:30:13;;;;;;;12.27;4.27;;;1.70;12.90;;;;;;5093789;28;20218;-75
2023/04/04 05:32:38;;;;;;;11.53;4.77;;;1.70;11.30;;;;;;5093135;28;20636;-75
2023/04/04 05:35:05;;;;;;;15.10;4.40;;;1.80;6.70;;;;;;5093360;28;20602;-75
2023/04/04 05:37:30;;;;;;;13.90;4.87;;;1.90;4.00;;;;;;5093489;28;20211;-75
2023/04/04 05:39:56;;;;;;;7.63;4.40;;;2.00;5.60;;;;;;5093536;28;20171;-75
2023/04/04 05:42:22;;;;;;;7.63;4.20;;;2.10;1.00;;;;;;5092478;28;20270;-75
2023/04/04 05:44:47;;;;;;;9.87;4.53;;;2.10;1.00;;;;;;5093750;28;20172;-75
2023/04/04 05:47:13;;;;;;;12.63;4.60;;;2.20;1.00;;;;;;5092980;28;20254;-73
2023/04/04 05:49:39;;;;;;;11.57;4.57;;;2.50;1.00;;;;;;5092319;28;20230;-75
2023/04/04 05:52:04;;;;;;;10.70;4.60;;;3.40;5.70;;;;;;5092953;28;20250;-74
2023/04/04 05:54:30;;;;;;;10.23;3.87;;;4.70;1.00;;;;;;5092358;28;20213;-75
2023/04/04 05:56:55;;;;;;;14.33;4.67;;;5.80;1.00;;;;;;5092390;28;20222;-75
2023/04/04 05:59:21;;;;;;;10.37;4.17;;;6.50;64.10;;;;;;5093182;28;20255;-76
2023/04/04 06:01:47;;;;;;;12.60;5.00;;;7.00;99.90;;;;;;5092347;28;20194;-77
2023/04/04 06:04:12;;;;;;;8.13;4.63;;;7.40;1.00;;;;;;5092993;28;20179;-76
2023/04/04 06:06:38;;;;;;;9.50;4.10;;;7.40;99.90;;;;;;5092441;28;20172;-76
2023/04/04 06:09:04;;;;;;;7.53;4.23;;;7.70;1.00;;;;;;5092874;28;20694;-76
2023/04/04 06:11:30;;;;;;;6.73;4.50;;;8.20;98.40;;;;;;5091946;28;20176;-76
2023/04/04 06:13:56;;;;;;;14.17;4.30;;;8.90;1.00;;;;;;5091962;28;20663;-76
2023/04/04 06:16:22;;;;;;;16.20;4.77;;;9.50;1.00;;;;;;5092314;28;20222;-76
2023/04/04 06:18:48;;;;;;;12.17;4.67;;;10.20;99.90;;;;;;5092830;28;20215;-75
2023/04/04 06:21:13;;;;;;;15.50;5.10;;;11.60;1.00;;;;;;5092218;28;20233;-76
2023/04/04 06:23:40;;;;;;;9.37;4.70;;;12.30;99.90;;;;;;5092462;28;20208;-77
2023/04/04 06:26:07;;;;;;;7.23;4.73;;;12.90;1.00;;;;;;5091888;28;20244;-77
2023/04/04 06:28:32;;;;;;;7.60;4.07;;;12.70;1.00;;;;;;5092279;28;20164;-77
2023/04/04 06:30:58;;;;;;;10.77;4.23;;;12.50;1.00;;;;;;5092201;28;20573;-76
2023/04/04 06:33:24;;;;;;;8.83;4.73;;;12.20;1.00;;;;;;5092711;28;20168;-77
2023/04/04 06:35:50;;;;;;;8.63;4.27;;;12.40;1.00;;;;;;5091695;28;20230;-78
2023/04/04 06:38:16;;;;;;;6.07;3.70;;;12.60;1.00;;;;;;5092785;28;20654;-78
2023/04/04 06:40:42;;;;;;;12.07;4.90;;;12.80;1.00;;;;;;5092077;28;20184;-78
2023/04/04 06:43:09;;;;;;;9.03;4.70;;;13.80;1.00;;;;;;5092273;28;20199;-78
2023/04/04 06:45:35;;;;;;;6.60;4.37;;;14.40;1.00;;;;;;5089994;28;20651;-78
2023/04/04 06:48:01;;;;;;;12.73;4.23;;;14.50;67.10;;;;;;5092220;28;20650;-78
2023/04/04 06:50:31;;;;;;;10.73;4.47;;;13.70;67.50;;;;;;5092592;28;20191;-78
2023/04/04 06:52:57;;;;;;;9.57;3.93;;;14.90;66.10;;;;;;5092327;28;20175;-79
2023/04/04 06:55:23;;;;;;;8.47;4.17;;;15.10;62.40;;;;;;5080356;28;20221;-79
2023/04/04 06:57:48;;;;;;;7.03;4.10;;;15.50;62.20;;;;;;5072184;28;20599;-77
2023/04/04 07:00:14;;;;;;;8.20;4.40;;;13.80;61.80;;;;;;5083216;28;20175;-74
2023/04/04 07:02:40;;;;;;;5.00;3.88;;;14.50;99.90;;;;;;5090535;28;20176;-76
2023/04/04 07:05:06;;;;;;;6.95;4.13;;;15.40;59.80;;;;;;5090983;28;20639;-74
2023/04/04 07:07:32;;;;;;;7.23;4.07;;;15.10;59.00;;;;;;5091799;28;20213;-73
2023/04/04 07:09:57;;;;;;;6.23;4.10;;;14.40;50.30;;;;;;5091569;28;20215;-75
2023/04/04 07:12:23;;;;;;;5.43;3.70;;;13.50;1.00;;;;;;5088296;28;20210;-74
2023/04/04 07:14:49;;;;;;;9.27;4.10;;;14.00;99.90;;;;;;5087540;28;20180;-76
2023/04/04 07:17:15;;;;;;;7.43;3.70;;;14.40;99.90;;;;;;5091845;28;20207;-76
2023/04/04 07:19:40;;;;;;;5.67;3.40;;;14.80;99.90;;;;;;5091894;28;20558;-75
2023/04/04 07:22:06;;;;;;;4.70;3.97;;;13.70;99.90;;;;;;5092156;28;20171;-75
2023/04/04 07:24:32;;;;;;;7.27;3.90;;;14.70;99.90;;;;;;5081147;28;20287;-76
2023/04/04 07:26:57;;;;;;;7.77;4.63;;;14.50;99.90;;;;;;5070200;28;20239;-74
2023/04/04 07:29:23;;;;;;;5.60;3.50;;;12.70;99.90;;;;;;5070265;28;20182;-75
2023/04/04 07:31:48;;;;;;;4.73;3.60;;;13.00;99.90;;;;;;5071040;28;20176;-76
2023/04/04 07:34:14;;;;;;;6.37;3.30;;;12.80;99.90;;;;;;5074231;28;20207;-69
2023/04/04 07:36:40;;;;;;;5.83;3.30;;;13.30;99.90;;;;;;5087458;28;20663;-69
2023/04/04 07:39:05;;;;;;;3.53;2.90;;;13.80;99.90;;;;;;5092410;28;20178;-71
2023/04/04 07:41:32;;;;;;;6.20;2.67;;;13.60;99.90;;;;;;5095033;28;20167;-71
2023/04/04 07:43:57;;;;;;;7.43;3.20;;;12.40;99.90;;;;;;5095311;28;20646;-71
2023/04/04 07:46:23;;;;;;;4.40;3.17;;;12.60;99.90;;;;;;5094667;28;20171;-73
2023/04/04 07:48:49;;;;;;;6.10;3.50;;;14.10;99.90;;;;;;5093975;28;20601;-73
2023/04/04 07:51:15;;;;;;;3.40;2.87;;;14.70;99.90;;;;;;5095098;28;20203;-74
2023/04/04 07:53:40;;;;;;;3.83;2.63;;;13.60;99.90;;;;;;5094914;28;20160;-73
2023/04/04 07:56:09;;;;;;;5.60;3.00;;;13.20;99.90;;;;;;5094786;28;20291;-75
2023/04/04 07:58:35;;;;;;;4.33;2.87;;;13.40;99.90;;;;;;5094106;28;20170;-72
2023/04/04 08:01:01;;;;;;;5.13;2.83;;;12.60;99.90;;;;;;5093088;28;20156;-73
2023/04/04 08:03:27;;;;;;;5.87;3.20;;;12.50;99.90;;;;;;5093731;28;20333;-74
2023/04/04 08:05:52;;;;;;;4.20;2.80;;;12.80;99.90;;;;;;5093855;28;20706;-73
2023/04/04 08:08:21;;;;;;;3.20;2.90;;;13.00;99.90;;;;;;5092289;28;20164;-72
2023/04/04 08:10:48;;;;;;;5.60;2.70;;;13.40;99.90;;;;;;5092819;28;20207;-76
2023/04/04 08:13:14;;;;;;;3.73;2.90;;;13.20;99.90;;;;;;5093469;28;20256;-73
2023/04/04 08:15:40;;;;;;;3.70;2.73;;;13.30;99.90;;;;;;5092462;28;20176;-73
2023/04/04 08:18:06;;;;;;;4.83;3.13;;;14.90;99.90;;;;;;5089772;28;20250;-75
2023/04/04 08:20:31;;;;;;;12.67;6.33;;;14.50;99.90;;;;;;5092862;28;20170;-75
2023/04/04 08:22:57;;;;;;;4.47;2.80;;;14.00;99.90;;;;;;5094916;28;20579;-73
2023/04/04 08:25:24;;;;;;;5.17;2.70;;;14.20;99.90;;;;;;5094743;28;20207;-72
2023/04/04 08:27:49;;;;;;;6.73;2.57;;;13.10;99.90;;;;;;5094681;28;20223;-71
2023/04/04 08:30:15;;;;;;;3.33;2.57;;;11.90;99.90;;;;;;5094550;28;20171;-72
2023/04/04 08:32:43;;;;;;;3.00;2.63;;;11.00;99.90;;;;;;5094027;28;20175;-71
2023/04/04 08:35:08;;;;;;;3.77;2.53;;;12.10;99.90;;;;;;5094467;28;20180;-73
2023/04/04 08:37:34;;;;;;;3.53;2.20;;;12.50;99.90;;;;;;5094752;28;20253;-73
2023/04/04 08:40:02;;;;;;;3.27;2.13;;;12.50;99.90;;;;;;5091309;28;20249;-70
2023/04/04 08:42:29;;;;;;;3.47;2.57;;;13.10;99.90;;;;;;5094130;28;20180;-71
2023/04/04 08:44:58;;;;;;;3.83;2.77;;;12.80;99.90;;;;;;5094489;28;20215;-71
2023/04/04 08:47:25;;;;;;;4.57;2.77;;;13.30;99.90;;;;;;5094286;28;20263;-74
2023/04/04 08:49:53;;;;;;;2.70;2.43;;;14.30;99.90;;;;;;5093682;28;20246;-73
2023/04/04 08:52:21;;;;;;;2.90;2.33;;;13.80;99.90;;;;;;5092742;28;20573;-73
2023/04/04 08:54:49;;;;;;;4.37;2.70;;;13.90;99.90;;;;;;5093145;28;20172;-73
2023/04/04 08:57:15;;;;;;;5.43;2.77;;;14.50;99.90;;;;;;5094229;28;20219;-73
2023/04/04 08:59:41;;;;;;;3.53;2.73;;;14.50;99.90;;;;;;5093885;28;20172;-70
2023/04/04 09:02:10;;;;;;;2.50;2.30;;;13.70;99.90;;;;;;5093928;28;20180;-74
2023/04/04 09:04:38;;;;;;;3.63;2.60;;;12.10;99.90;;;;;;5093660;28;20317;-75
2023/04/04 09:07:05;;;;;;;4.77;2.83;;;12.40;99.90;;;;;;5094343;28;20203;-72
2023/04/04 09:09:32;;;;;;;3.57;2.40;;;12.90;99.90;;;;;;5092126;28;20179;-73
2023/04/04 09:12:00;;;;;;;3.67;2.67;;;13.00;99.90;;;;;;5091447;28;20190;-73
2023/04/04 09:14:27;;;;;;;6.10;2.60;;;13.60;99.90;;;;;;5094437;28;20172;-73
2023/04/04 09:16:53;;;;;;;2.83;2.57;;;12.40;99.90;;;;;;5093354;28;20565;-73
2023/04/04 09:19:19;;;;;;;4.10;2.63;;;13.20;99.90;;;;;;5093528;28;20172;-72
2023/04/04 09:21:48;;;;;;;4.07;2.63;;;13.40;99.90;;;;;;5094103;28;20225;-72
2023/04/04 09:24:14;;;;;;;2.90;2.53;;;13.80;99.90;;;;;;5093510;28;20171;-74
2023/04/04 09:26:47;;;;;;;3.90;2.30;;;12.60;99.90;;;;;;5093172;28;20176;-76
2023/04/04 09:29:13;;;;;;;5.70;2.43;;;12.40;99.90;;;;;;5094007;28;20176;-77
2023/04/04 09:31:40;;;;;;;4.27;2.60;;;13.30;99.90;;;;;;5093725;28;20259;-76
2023/04/04 09:34:06;;;;;;;4.57;2.63;;;12.80;99.90;;;;;;5093027;28;20225;-75
2023/04/04 09:36:32;;;;;;;4.77;2.70;;;13.70;99.90;;;;;;5092528;28;20227;-78
2023/04/04 09:38:58;;;;;;;3.03;2.60;;;13.30;99.90;;;;;;5091842;28;20172;-70
2023/04/04 09:41:25;;;;;;;6.33;3.50;;;12.70;99.90;;;;;;5093101;28;20168;-73
2023/04/04 09:43:50;;;;;;;2.90;2.70;;;13.10;99.90;;;;;;5090790;28;21233;-72
2023/04/04 09:46:20;;;;;;;4.60;2.80;;;13.40;99.90;;;;;;5092350;28;20246;-72
2023/04/04 09:48:53;;;;;;;2.87;2.40;;;14.00;1.00;;;;;;5090942;28;20317;-71
2023/04/04 09:51:19;;;;;;;3.33;2.27;;;12.90;1.00;;;;;;5093183;28;20159;-71
2023/04/04 09:53:47;;;;;;;4.23;2.60;;;12.60;1.00;;;;;;5092766;28;20692;-71
2023/04/04 09:56:13;;;;;;;2.47;2.27;;;12.80;99.90;;;;;;5092537;28;20196;-76
2023/04/04 09:58:45;;;;;;;2.50;2.23;;;12.00;1.00;;;;;;5090463;28;20607;-73
2023/04/04 10:01:12;;;;;;;6.90;2.63;;;12.10;99.90;;;;;;5092143;28;20279;-75
2023/04/04 10:03:38;;;;;;;3.80;2.20;;;11.30;99.90;;;;;;5090055;28;20250;-74
2023/04/04 10:06:11;;;;;;;5.43;2.73;;;12.10;99.90;;;;;;5091681;28;20270;-74
2023/04/04 10:08:40;;;;;;;4.30;2.37;;;12.10;99.90;;;;;;5091167;28;20175;-74
2023/04/04 10:11:06;;;;;;;2.60;2.33;;;12.50;99.90;;;;;;5090139;28;20160;-70
2023/04/04 10:13:39;;;;;;;6.10;2.53;;;12.20;99.90;;;;;;5090685;28;20172;-74
2023/04/04 10:16:05;;;;;;;3.27;2.70;;;11.70;99.90;;;;;;5084801;28;20389;-73
2023/04/04 10:18:34;;;;;;;3.80;2.67;;;12.40;99.90;;;;;;5091328;28;20910;-74
2023/04/04 10:21:02;;;;;;;3.57;2.73;;;12.30;99.90;;;;;;5092647;28;20179;-73
2023/04/04 10:23:28;;;;;;;3.33;2.53;;;11.60;99.90;;;;;;5092923;28;20199;-75
2023/04/04 10:25:57;;;;;;;4.03;2.73;;;11.20;99.90;;;;;;5091687;28;20210;-74
2023/04/04 10:28:25;;;;;;;7.53;2.73;;;11.30;99.90;;;;;;5092824;28;20179;-75
2023/04/04 10:31:15;;;;;;;5.32;3.10;;;11.50;99.90;;;;;;5091501;28;20402;-75
2023/04/04 10:34:02;;;;;;;3.83;2.60;;;11.80;99.90;;;;;;5091363;28;20183;-77
2023/04/04 10:36:35;;;;;;;3.87;3.13;;;11.70;99.90;;;;;;5091082;28;20713;-74
2023/04/04 10:39:07;;;;;;;4.30;3.30;;;11.70;99.90;;;;;;5092415;28;20199;-72
2023/04/04 10:41:34;;;;;;;4.67;3.37;;;11.60;99.90;;;;;;5092058;28;20176;-75
2023/04/04 10:44:11;;;;;;;3.47;2.67;;;12.30;99.90;;;;;;5092022;28;20217;-74
2023/04/04 10:46:40;;;;;;;2.87;2.43;;;12.30;99.90;;;;;;5092178;28;20195;-73
2023/04/04 10:49:07;;;;;;;3.00;2.70;;;12.60;99.90;;;;;;5090738;28;20214;-73
2023/04/04 10:51:33;;;;;;;4.27;3.47;;;11.60;99.90;;;;;;5091741;28;20176;-75
2023/04/04 10:53:59;;;;;;;3.20;2.90;;;11.50;99.90;;;;;;5092083;28;20175;-75
2023/04/04 10:56:25;;;;;;;2.70;2.50;;;11.40;99.90;;;;;;5091871;28;20718;-74
2023/04/04 10:59:12;;;;;;;4.10;3.40;;;11.50;99.90;;;;;;5091828;28;20156;-76
2023/04/04 11:02:01;;;;;;;3.37;2.73;;;11.40;99.90;;;;;;5091458;28;20189;-76
2023/04/04 11:05:09;;;;;;;3.93;2.90;;;11.30;99.90;;;;;;5086377;28;20187;-75
2023/04/04 11:07:35;;;;;;;5.03;2.87;;;11.30;99.90;;;;;;5092172;28;20243;-75
2023/04/04 11:10:11;;;;;;;4.17;3.70;;;11.80;99.90;;;;;;5091507;28;20654;-74
2023/04/04 11:12:44;;;;;;;5.03;3.03;;;11.80;99.90;;;;;;5092505;28;20164;-77
2023/04/04 11:15:11;;;;;;;3.53;3.10;;;11.40;99.90;;;;;;5095629;28;20705;-78
2023/04/04 11:17:59;;;;;;;3.50;3.17;;;11.30;99.90;;;;;;5095870;28;20287;-75
2023/04/04 11:20:34;;;;;;;4.28;3.45;;;11.40;99.90;;;;;;5093628;28;20402;-76
2023/04/04 11:23:07;;;;;;;4.73;3.27;;;11.80;99.90;;;;;;5096338;28;20182;-75
2023/04/04 11:25:36;;;;;;;3.00;2.70;;;11.70;99.90;;;;;;5096128;28;20160;-75
2023/04/04 11:28:13;;;;;;;3.50;3.20;;;11.30;99.90;;;;;;5095612;28;20168;-76
2023/04/04 11:30:46;;;;;;;3.93;3.27;;;11.30;99.90;;;;;;5095597;28;20642;-77
2023/04/04 11:33:13;;;;;;;4.30;3.70;;;10.90;99.90;;;;;;5095237;28;20176;-73
2023/04/04 11:35:39;;;;;;;4.03;3.17;;;11.70;99.90;;;;;;5095136;28;20364;-74
2023/04/04 11:38:12;;;;;;;3.30;2.87;;;12.00;99.90;;;;;;5095483;28;20251;-78
2023/04/04 11:40:40;;;;;;;3.80;3.20;;;12.80;99.90;;;;;;5095364;28;20244;-77
2023/04/04 11:43:08;;;;;;;3.60;3.30;;;13.20;99.90;;;;;;5094820;28;20187;-75
2023/04/04 11:45:35;;;;;;;6.27;3.37;;;13.80;99.90;;;;;;5094164;28;20190;-76
2023/04/04 11:48:05;;;;;;;4.03;3.40;;;13.20;99.90;;;;;;5094806;28;20172;-77
2023/04/04 11:50:37;;;;;;;2.77;2.57;;;13.20;99.90;;;;;;5094811;28;20196;-74
2023/04/04 11:53:07;;;;;;;4.43;3.40;;;11.50;99.90;;;;;;5095064;28;20294;-78
2023/04/04 11:55:41;;;;;;;3.23;2.93;;;11.40;99.90;;;;;;5094041;28;20622;-74
2023/04/04 11:58:11;;;;;;;4.67;3.27;;;11.30;99.90;;;;;;5094063;28;20199;-74
2023/04/04 12:00:38;;;;;;;6.23;3.50;;;11.70;99.90;;;;;;5092703;28;20194;-72
2023/04/04 12:03:10;;;;;;;4.07;3.23;;;11.60;99.90;;;;;;5093038;28;20587;-72
2023/04/04 12:05:37;;;;;;;2.93;2.70;;;11.50;99.90;;;;;;5092392;28;20175;-72
2023/04/04 12:08:07;;;;;;;3.47;3.17;;;11.30;99.90;;;;;;5090523;28;20401;-73
2023/04/04 12:10:34;;;;;;;5.53;3.67;;;11.40;99.90;;;;;;5089988;28;20226;-71
2023/04/04 12:13:01;;;;;;;5.50;3.10;;;11.80;99.90;;;;;;5092138;28;20199;-72
2023/04/04 12:15:28;;;;;;;2.80;2.60;;;11.60;99.90;;;;;;5094326;28;20172;-72
2023/04/04 12:17:55;;;;;;;5.60;3.03;;;10.90;99.90;;;;;;5093836;28;20206;-73
2023/04/04 12:20:25;;;;;;;3.77;3.07;;;10.80;99.90;;;;;;5094279;28;20168;-73
2023/04/04 12:22:51;;;;;;;3.70;3.00;;;10.60;99.90;;;;;;5094538;28;20425;-74
2023/04/04 12:25:22;;;;;;;4.53;3.07;;;10.50;99.90;;;;;;5093520;28;20180;-73
2023/04/04 12:27:50;;;;;;;6.70;2.80;;;10.30;99.90;;;;;;5094391;28;20210;-75
2023/04/04 12:30:17;;;;;;;3.67;2.97;;;10.60;1.00;;;;;;5094464;28;20172;-73
2023/04/04 12:32:46;;;;;;;4.70;3.10;;;10.70;99.90;;;;;;5094034;28;20267;-73
2023/04/04 12:35:12;;;;;;;3.47;3.17;;;10.70;99.90;;;;;;5093433;28;20183;-74
2023/04/04 12:37:39;;;;;;;3.77;3.33;;;10.70;1.00;;;;;;5094416;28;20227;-75
2023/04/04 12:40:06;;;;;;;3.80;2.90;;;10.90;99.90;;;;;;5093712;28;20176;-73
2023/04/04 12:42:35;;;;;;;4.43;3.10;;;10.40;99.90;;;;;;5094333;28;20171;-74
2023/04/04 12:45:02;;;;;;;4.23;3.23;;;10.40;1.00;;;;;;5093953;28;20179;-73
2023/04/04 12:47:30;;;;;;;3.53;2.80;;;10.50;99.90;;;;;;5092020;28;20628;-71
2023/04/04 12:49:56;;;;;;;4.00;3.10;;;10.10;99.90;;;;;;5093638;28;20544;-74
2023/04/04 12:52:32;;;;;;;4.90;3.00;;;10.30;99.90;;;;;;5093980;28;20180;-74
2023/04/04 12:55:05;;;;;;;3.20;3.00;;;10.50;99.90;;;;;;5094268;28;20258;-74